sensor_id;sensor_type;location;lat;lon;timestamp;temperature;humidity
19017;DHT22;9641;51.494;6.670;2023-08-30T00:00:35;15.30;99.90
19017;DHT22;9641;51.494;6.670;2023-08-30T00:03:02;15.30;99.90
19017;DHT22;9641;51.494;6.670;2023-08-30T00:05:31;15.20;99.90
19017;DHT22;9641;51.494;6.670;2023-08-30T00:07:58;15.20;99.90
19017;DHT22;9641;51.494;6.670;2023-08-30T00:10:25;15.20;99.90
19017;DHT22;9641;51.494;6.670;2023-08-30T00:12:52;15.20;99.90
19017;DHT22;9641;51.494;6.670;2023-08-30T00:15:22;15.10;99.90
19017;DHT22;9641;51.494;6.670;2023-08-30T00:17:49;15.20;99.90
19017;DHT22;9641;51.494;6.670;2023-08-30T00:20:17;15.10;99.90
19017;DHT22;9641;51.494;6.670;2023-08-30T00:22:46;15.10;99.90
19017;DHT22;9641;51.494;6.670;2023-08-30T00:25:16;15.10;99.90
19017;DHT22;9641;51.494;6.670;2023-08-30T00:27:45;15.00;99.90
19017;DHT22;9641;51.494;6.670;2023-08-30T00:30:13;15.00;99.90
19017;DHT22;9641;51.494;6.670;2023-08-30T00:32:40;15.00;99.90
19017;DHT22;9641;51.494;6.670;2023-08-30T00:35:07;15.00;99.90
19017;DHT22;9641;51.494;6.670;2023-08-30T00:37:34;15.00;99.90
19017;DHT22;9641;51.494;6.670;2023-08-30T00:40:04;15.00;99.90
19017;DHT22;9641;51.494;6.670;2023-08-30T00:42:32;15.10;99.90
19017;DHT22;9641;51.494;6.670;2023-08-30T00:44:59;15.10;99.90
19017;DHT22;9641;51.494;6.670;2023-08-30T00:47:26;15.00;99.90
19017;DHT22;9641;51.494;6.670;2023-08-30T00:49:54;15.00;99.90
19017;DHT22;9641;51.494;6.670;2023-08-30T00:52:23;15.00;99.90
19017;DHT22;9641;51.494;6.670;2023-08-30T00:54:51;15.00;99.90
19017;DHT22;9641;51.494;6.670;2023-08-30T00:57:19;14.90;99.90
19017;DHT22;9641;51.494;6.670;2023-08-30T00:59:49;14.90;99.90
19017;DHT22;9641;51.494;6.670;2023-08-30T01:02:18;14.90;99.90
19017;DHT22;9641;51.494;6.670;2023-08-30T01:04:45;14.80;99.90
19017;DHT22;9641;51.494;6.670;2023-08-30T01:07:12;14.80;99.90
19017;DHT22;9641;51.494;6.670;2023-08-30T01:09:39;14.70;99.90
19017;DHT22;9641;51.494;6.670;2023-08-30T01:12:12;14.70;99.90
19017;DHT22;9641;51.494;6.670;2023-08-30T01:14:59;14.70;99.90
19017;DHT22;9641;51.494;6.670;2023-08-30T01:17:28;14.70;99.90
19017;DHT22;9641;51.494;6.670;2023-08-30T01:20:01;14.60;99.90
19017;DHT22;9641;51.494;6.670;2023-08-30T01:22:40;14.60;99.90
19017;DHT22;9641;51.494;6.670;2023-08-30T01:25:17;14.60;99.90
19017;DHT22;9641;51.494;6.670;2023-08-30T01:27:48;14.60;99.90
19017;DHT22;9641;51.494;6.670;2023-08-30T01:30:17;14.70;99.90
19017;DHT22;9641;51.494;6.670;2023-08-30T01:32:46;14.70;99.90
19017;DHT22;9641;51.494;6.670;2023-08-30T01:35:14;14.70;99.90
19017;DHT22;9641;51.494;6.670;2023-08-30T01:37:44;14.80;99.90
19017;DHT22;9641;51.494;6.670;2023-08-30T01:40:12;14.70;99.90
19017;DHT22;9641;51.494;6.670;2023-08-30T01:42:40;14.80;99.90
19017;DHT22;9641;51.494;6.670;2023-08-30T01:45:12;14.80;99.90
19017;DHT22;9641;51.494;6.670;2023-08-30T01:47:41;14.80;99.90
19017;DHT22;9641;51.494;6.670;2023-08-30T01:50:11;14.80;99.90
19017;DHT22;9641;51.494;6.670;2023-08-30T01:52:39;14.80;99.90
19017;DHT22;9641;51.494;6.670;2023-08-30T01:55:08;14.80;99.90
19017;DHT22;9641;51.494;6.670;2023-08-30T01:57:35;14.80;99.90
19017;DHT22;9641;51.494;6.670;2023-08-30T02:00:03;14.80;99.90
19017;DHT22;9641;51.494;6.670;2023-08-30T02:02:42;14.80;99.90
19017;DHT22;9641;51.494;6.670;2023-08-30T02:05:11;14.80;99.90
19017;DHT22;9641;51.494;6.670;2023-08-30T02:07:44;14.80;99.90
19017;DHT22;9641;51.494;6.670;2023-08-30T02:10:17;14.80;99.90
19017;DHT22;9641;51.494;6.670;2023-08-30T02:12:48;14.80;99.90
19017;DHT22;9641;51.494;6.670;2023-08-30T02:15:17;14.80;99.90
19017;DHT22;9641;51.494;6.670;2023-08-30T02:17:48;14.80;99.90
19017;DHT22;9641;51.494;6.670;2023-08-30T02:20:16;14.80;99.90
19017;DHT22;9641;51.494;6.670;2023-08-30T02:22:43;14.80;99.90
19017;DHT22;9641;51.494;6.670;2023-08-30T02:25:09;14.80;99.90
19017;DHT22;9641;51.494;6.670;2023-08-30T02:27:36;14.90;99.90
19017;DHT22;9641;51.494;6.670;2023-08-30T02:30:05;14.90;99.90
19017;DHT22;9641;51.494;6.670;2023-08-30T02:32:32;14.90;99.90
19017;DHT22;9641;51.494;6.670;2023-08-30T02:35:01;14.90;99.90
19017;DHT22;9641;51.494;6.670;2023-08-30T02:37:28;14.90;99.90
19017;DHT22;9641;51.494;6.670;2023-08-30T02:39:55;14.90;99.90
19017;DHT22;9641;51.494;6.670;2023-08-30T02:42:22;14.90;99.90
19017;DHT22;9641;51.494;6.670;2023-08-30T02:44:52;14.80;99.90
19017;DHT22;9641;51.494;6.670;2023-08-30T02:47:19;14.80;99.90
19017;DHT22;9641;51.494;6.670;2023-08-30T02:49:46;14.80;99.90
19017;DHT22;9641;51.494;6.670;2023-08-30T02:52:14;14.80;99.90
19017;DHT22;9641;51.494;6.670;2023-08-30T02:54:41;14.80;99.90
19017;DHT22;9641;51.494;6.670;2023-08-30T02:57:08;14.80;99.90
19017;DHT22;9641;51.494;6.670;2023-08-30T02:59:35;14.80;99.90
19017;DHT22;9641;51.494;6.670;2023-08-30T03:02:05;14.70;99.90
19017;DHT22;9641;51.494;6.670;2023-08-30T03:04:32;14.70;99.90
19017;DHT22;9641;51.494;6.670;2023-08-30T03:07:00;14.70;99.90
19017;DHT22;9641;51.494;6.670;2023-08-30T03:09:29;14.70;99.90
19017;DHT22;9641;51.494;6.670;2023-08-30T03:11:56;14.60;99.90
19017;DHT22;9641;51.494;6.670;2023-08-30T03:14:24;14.60;99.90
19017;DHT22;9641;51.494;6.670;2023-08-30T03:16:51;14.60;99.90
19017;DHT22;9641;51.494;6.670;2023-08-30T03:19:18;14.60;99.90
19017;DHT22;9641;51.494;6.670;2023-08-30T03:21:44;14.60;99.90
19017;DHT22;9641;51.494;6.670;2023-08-30T03:24:12;14.60;99.90
19017;DHT22;9641;51.494;6.670;2023-08-30T03:26:43;14.60;99.90
19017;DHT22;9641;51.494;6.670;2023-08-30T03:29:11;14.60;99.90
19017;DHT22;9641;51.494;6.670;2023-08-30T03:31:38;14.60;99.90
19017;DHT22;9641;51.494;6.670;2023-08-30T03:34:05;14.60;99.90
19017;DHT22;9641;51.494;6.670;2023-08-30T03:36:32;14.60;99.90
19017;DHT22;9641;51.494;6.670;2023-08-30T03:39:01;14.60;99.90
19017;DHT22;9641;51.494;6.670;2023-08-30T03:41:28;14.60;99.90
19017;DHT22;9641;51.494;6.670;2023-08-30T03:44:01;14.60;99.90
19017;DHT22;9641;51.494;6.670;2023-08-30T03:46:28;14.60;99.90
19017;DHT22;9641;51.494;6.670;2023-08-30T03:48:54;14.60;99.90
19017;DHT22;9641;51.494;6.670;2023-08-30T03:51:22;14.60;99.90
19017;DHT22;9641;51.494;6.670;2023-08-30T03:53:49;14.60;99.90
19017;DHT22;9641;51.494;6.670;2023-08-30T03:56:16;14.60;99.90
19017;DHT22;9641;51.494;6.670;2023-08-30T03:58:45;14.60;99.90
19017;DHT22;9641;51.494;6.670;2023-08-30T04:01:15;14.60;99.90
19017;DHT22;9641;51.494;6.670;2023-08-30T04:03:42;14.60;99.90
19017;DHT22;9641;51.494;6.670;2023-08-30T04:06:09;14.60;99.90
19017;DHT22;9641;51.494;6.670;2023-08-30T04:08:36;14.60;99.90
19017;DHT22;9641;51.494;6.670;2023-08-30T04:11:03;14.60;99.90
19017;DHT22;9641;51.494;6.670;2023-08-30T04:13:30;14.60;99.90
19017;DHT22;9641;51.494;6.670;2023-08-30T04:15:56;14.60;99.90
19017;DHT22;9641;51.494;6.670;2023-08-30T04:18:26;14.70;99.90
19017;DHT22;9641;51.494;6.670;2023-08-30T04:20:54;14.70;99.90
19017;DHT22;9641;51.494;6.670;2023-08-30T04:23:20;14.70;99.90
19017;DHT22;9641;51.494;6.670;2023-08-30T04:25:49;14.70;99.90
19017;DHT22;9641;51.494;6.670;2023-08-30T04:28:16;14.70;99.90
19017;DHT22;9641;51.494;6.670;2023-08-30T04:30:44;14.70;99.90
19017;DHT22;9641;51.494;6.670;2023-08-30T04:33:11;14.70;99.90
19017;DHT22;9641;51.494;6.670;2023-08-30T04:35:39;14.70;99.90
19017;DHT22;9641;51.494;6.670;2023-08-30T04:38:06;14.80;99.90
19017;DHT22;9641;51.494;6.670;2023-08-30T04:40:33;14.70;99.90
19017;DHT22;9641;51.494;6.670;2023-08-30T04:43:01;14.80;99.90
19017;DHT22;9641;51.494;6.670;2023-08-30T04:45:28;14.80;99.90
19017;DHT22;9641;51.494;6.670;2023-08-30T04:47:56;14.80;99.90
19017;DHT22;9641;51.494;6.670;2023-08-30T04:50:25;14.80;99.90
19017;DHT22;9641;51.494;6.670;2023-08-30T04:52:53;14.80;99.90
19017;DHT22;9641;51.494;6.670;2023-08-30T04:55:23;14.80;99.90
19017;DHT22;9641;51.494;6.670;2023-08-30T04:57:51;14.80;99.90
19017;DHT22;9641;51.494;6.670;2023-08-30T05:00:19;14.70;99.90
19017;DHT22;9641;51.494;6.670;2023-08-30T05:02:47;14.70;99.90
19017;DHT22;9641;51.494;6.670;2023-08-30T05:05:15;14.60;99.90
19017;DHT22;9641;51.494;6.670;2023-08-30T05:07:42;14.70;99.90
19017;DHT22;9641;51.494;6.670;2023-08-30T05:10:11;14.60;99.90
19017;DHT22;9641;51.494;6.670;2023-08-30T05:12:38;14.60;99.90
19017;DHT22;9641;51.494;6.670;2023-08-30T05:15:07;14.60;99.90
19017;DHT22;9641;51.494;6.670;2023-08-30T05:17:34;14.60;99.90
19017;DHT22;9641;51.494;6.670;2023-08-30T05:20:01;14.60;99.90
19017;DHT22;9641;51.494;6.670;2023-08-30T05:22:29;14.60;99.90
19017;DHT22;9641;51.494;6.670;2023-08-30T05:25:00;14.60;99.90
19017;DHT22;9641;51.494;6.670;2023-08-30T05:27:35;14.60;99.90
19017;DHT22;9641;51.494;6.670;2023-08-30T05:30:06;14.60;99.90
19017;DHT22;9641;51.494;6.670;2023-08-30T05:32:35;14.60;99.90
19017;DHT22;9641;51.494;6.670;2023-08-30T05:35:04;14.60;99.90
19017;DHT22;9641;51.494;6.670;2023-08-30T05:37:48;14.60;99.90
19017;DHT22;9641;51.494;6.670;2023-08-30T05:40:35;14.60;99.90
19017;DHT22;9641;51.494;6.670;2023-08-30T05:43:04;14.70;99.90
19017;DHT22;9641;51.494;6.670;2023-08-30T05:45:31;14.70;99.90
19017;DHT22;9641;51.494;6.670;2023-08-30T05:47:58;14.70;99.90
19017;DHT22;9641;51.494;6.670;2023-08-30T05:50:27;14.70;99.90
19017;DHT22;9641;51.494;6.670;2023-08-30T05:52:54;14.80;99.90
19017;DHT22;9641;51.494;6.670;2023-08-30T05:55:21;14.80;99.90
19017;DHT22;9641;51.494;6.670;2023-08-30T05:57:49;14.90;99.90
19017;DHT22;9641;51.494;6.670;2023-08-30T06:00:29;14.90;99.90
19017;DHT22;9641;51.494;6.670;2023-08-30T06:02:56;15.00;99.90
19017;DHT22;9641;51.494;6.670;2023-08-30T06:05:24;15.10;99.90
19017;DHT22;9641;51.494;6.670;2023-08-30T06:07:51;15.10;99.90
19017;DHT22;9641;51.494;6.670;2023-08-30T06:10:22;15.10;99.90
19017;DHT22;9641;51.494;6.670;2023-08-30T06:12:53;15.10;99.90
19017;DHT22;9641;51.494;6.670;2023-08-30T06:15:20;15.10;99.90
19017;DHT22;9641;51.494;6.670;2023-08-30T06:17:49;15.20;99.90
19017;DHT22;9641;51.494;6.670;2023-08-30T06:20:16;15.30;99.90
19017;DHT22;9641;51.494;6.670;2023-08-30T06:22:43;15.30;99.90
19017;DHT22;9641;51.494;6.670;2023-08-30T06:25:10;15.40;99.90
19017;DHT22;9641;51.494;6.670;2023-08-30T06:27:43;15.40;99.90
19017;DHT22;9641;51.494;6.670;2023-08-30T06:30:11;15.40;99.90
19017;DHT22;9641;51.494;6.670;2023-08-30T06:32:38;15.50;99.90
19017;DHT22;9641;51.494;6.670;2023-08-30T06:35:07;15.60;99.90
19017;DHT22;9641;51.494;6.670;2023-08-30T06:37:34;15.60;99.90
19017;DHT22;9641;51.494;6.670;2023-08-30T06:40:01;15.60;99.90
19017;DHT22;9641;51.494;6.670;2023-08-30T06:42:29;15.60;99.90
19017;DHT22;9641;51.494;6.670;2023-08-30T06:44:56;15.70;99.90
19017;DHT22;9641;51.494;6.670;2023-08-30T06:47:23;15.80;99.90
19017;DHT22;9641;51.494;6.670;2023-08-30T06:49:52;15.80;99.90
19017;DHT22;9641;51.494;6.670;2023-08-30T06:52:21;15.90;99.90
19017;DHT22;9641;51.494;6.670;2023-08-30T06:54:49;15.90;99.90
19017;DHT22;9641;51.494;6.670;2023-08-30T06:57:16;15.90;99.90
19017;DHT22;9641;51.494;6.670;2023-08-30T06:59:43;15.90;99.90
19017;DHT22;9641;51.494;6.670;2023-08-30T07:02:10;16.00;99.90
19017;DHT22;9641;51.494;6.670;2023-08-30T07:04:37;16.00;99.90
19017;DHT22;9641;51.494;6.670;2023-08-30T07:07:04;16.10;99.90
19017;DHT22;9641;51.494;6.670;2023-08-30T07:09:32;16.10;99.90
19017;DHT22;9641;51.494;6.670;2023-08-30T07:11:59;16.20;99.90
19017;DHT22;9641;51.494;6.670;2023-08-30T07:14:26;16.20;99.90
19017;DHT22;9641;51.494;6.670;2023-08-30T07:16:53;16.20;99.90
19017;DHT22;9641;51.494;6.670;2023-08-30T07:19:20;16.30;99.90
19017;DHT22;9641;51.494;6.670;2023-08-30T07:21:47;16.30;99.90
19017;DHT22;9641;51.494;6.670;2023-08-30T07:24:14;16.30;99.90
19017;DHT22;9641;51.494;6.670;2023-08-30T07:26:42;16.30;99.90
19017;DHT22;9641;51.494;6.670;2023-08-30T07:29:09;16.40;99.90
19017;DHT22;9641;51.494;6.670;2023-08-30T07:31:39;16.50;99.90
19017;DHT22;9641;51.494;6.670;2023-08-30T07:34:10;16.50;99.90
19017;DHT22;9641;51.494;6.670;2023-08-30T07:36:38;16.60;99.90
19017;DHT22;9641;51.494;6.670;2023-08-30T07:39:05;16.70;99.90
19017;DHT22;9641;51.494;6.670;2023-08-30T07:41:34;16.70;99.90
19017;DHT22;9641;51.494;6.670;2023-08-30T07:44:05;16.80;99.90
19017;DHT22;9641;51.494;6.670;2023-08-30T07:46:32;16.90;99.90
19017;DHT22;9641;51.494;6.670;2023-08-30T07:48:59;17.00;99.90
19017;DHT22;9641;51.494;6.670;2023-08-30T07:51:26;17.20;59.40
19017;DHT22;9641;51.494;6.670;2023-08-30T07:53:53;17.30;78.50
19017;DHT22;9641;51.494;6.670;2023-08-30T07:56:20;17.50;58.00
19017;DHT22;9641;51.494;6.670;2023-08-30T07:58:47;17.60;1.00
19017;DHT22;9641;51.494;6.670;2023-08-30T08:01:16;17.70;1.00
19017;DHT22;9641;51.494;6.670;2023-08-30T08:03:44;17.70;1.00
19017;DHT22;9641;51.494;6.670;2023-08-30T08:06:11;17.80;1.00
19017;DHT22;9641;51.494;6.670;2023-08-30T08:08:38;17.90;1.00
19017;DHT22;9641;51.494;6.670;2023-08-30T08:11:05;18.00;1.00
19017;DHT22;9641;51.494;6.670;2023-08-30T08:13:32;18.10;1.00
19017;DHT22;9641;51.494;6.670;2023-08-30T08:15:59;18.20;1.00
19017;DHT22;9641;51.494;6.670;2023-08-30T08:18:28;18.30;1.00
19017;DHT22;9641;51.494;6.670;2023-08-30T08:20:55;18.30;99.90
19017;DHT22;9641;51.494;6.670;2023-08-30T08:23:22;18.30;99.90
19017;DHT22;9641;51.494;6.670;2023-08-30T08:25:49;18.30;99.90
19017;DHT22;9641;51.494;6.670;2023-08-30T08:28:16;18.30;99.90
19017;DHT22;9641;51.494;6.670;2023-08-30T08:30:43;18.20;99.90
19017;DHT22;9641;51.494;6.670;2023-08-30T08:33:10;18.20;99.90
19017;DHT22;9641;51.494;6.670;2023-08-30T08:35:39;18.10;1.00
19017;DHT22;9641;51.494;6.670;2023-08-30T08:38:09;18.10;99.90
19017;DHT22;9641;51.494;6.670;2023-08-30T08:40:37;18.20;1.00
19017;DHT22;9641;51.494;6.670;2023-08-30T08:43:05;18.10;1.00
19017;DHT22;9641;51.494;6.670;2023-08-30T08:45:35;18.10;99.90
19017;DHT22;9641;51.494;6.670;2023-08-30T08:48:03;18.10;99.90
19017;DHT22;9641;51.494;6.670;2023-08-30T08:50:31;18.00;1.00
19017;DHT22;9641;51.494;6.670;2023-08-30T08:53:01;17.80;1.00
19017;DHT22;9641;51.494;6.670;2023-08-30T08:55:29;17.70;1.00
19017;DHT22;9641;51.494;6.670;2023-08-30T08:57:57;17.50;1.00
19017;DHT22;9641;51.494;6.670;2023-08-30T09:00:25;17.40;1.00
19017;DHT22;9641;51.494;6.670;2023-08-30T09:02:53;17.30;25.30
19017;DHT22;9641;51.494;6.670;2023-08-30T09:05:20;17.20;99.90
19017;DHT22;9641;51.494;6.670;2023-08-30T09:07:49;17.10;99.90
19017;DHT22;9641;51.494;6.670;2023-08-30T09:10:21;17.10;99.90
19017;DHT22;9641;51.494;6.670;2023-08-30T09:12:48;17.00;99.90
19017;DHT22;9641;51.494;6.670;2023-08-30T09:15:15;16.80;99.90
19017;DHT22;9641;51.494;6.670;2023-08-30T09:17:43;16.70;99.90
19017;DHT22;9641;51.494;6.670;2023-08-30T09:20:13;16.60;99.90
19017;DHT22;9641;51.494;6.670;2023-08-30T09:22:43;16.50;99.90
19017;DHT22;9641;51.494;6.670;2023-08-30T09:25:11;16.40;99.90
19017;DHT22;9641;51.494;6.670;2023-08-30T09:27:40;16.30;99.90
19017;DHT22;9641;51.494;6.670;2023-08-30T09:30:08;16.30;99.90
19017;DHT22;9641;51.494;6.670;2023-08-30T09:32:41;16.20;99.90
19017;DHT22;9641;51.494;6.670;2023-08-30T09:35:09;16.20;99.90
19017;DHT22;9641;51.494;6.670;2023-08-30T09:37:36;16.20;99.90
19017;DHT22;9641;51.494;6.670;2023-08-30T09:40:04;16.10;99.90
19017;DHT22;9641;51.494;6.670;2023-08-30T09:42:32;16.10;99.90
19017;DHT22;9641;51.494;6.670;2023-08-30T09:45:01;16.10;99.90
19017;DHT22;9641;51.494;6.670;2023-08-30T09:47:29;16.00;99.90
19017;DHT22;9641;51.494;6.670;2023-08-30T09:49:58;16.10;99.90
19017;DHT22;9641;51.494;6.670;2023-08-30T09:52:26;16.10;99.90
19017;DHT22;9641;51.494;6.670;2023-08-30T09:54:55;16.10;99.90
19017;DHT22;9641;51.494;6.670;2023-08-30T09:57:23;16.10;99.90
19017;DHT22;9641;51.494;6.670;2023-08-30T09:59:50;16.10;99.90
19017;DHT22;9641;51.494;6.670;2023-08-30T10:02:19;16.10;99.90
19017;DHT22;9641;51.494;6.670;2023-08-30T10:04:47;16.10;99.90
19017;DHT22;9641;51.494;6.670;2023-08-30T10:07:15;16.20;99.90
19017;DHT22;9641;51.494;6.670;2023-08-30T10:09:44;16.30;99.90
19017;DHT22;9641;51.494;6.670;2023-08-30T10:12:12;16.30;99.90
19017;DHT22;9641;51.494;6.670;2023-08-30T10:14:39;16.30;99.90
19017;DHT22;9641;51.494;6.670;2023-08-30T10:17:09;16.30;99.90
19017;DHT22;9641;51.494;6.670;2023-08-30T10:19:39;16.30;99.90
19017;DHT22;9641;51.494;6.670;2023-08-30T10:22:07;16.30;99.90
19017;DHT22;9641;51.494;6.670;2023-08-30T10:24:44;16.30;99.90
19017;DHT22;9641;51.494;6.670;2023-08-30T10:27:12;16.20;99.90
19017;DHT22;9641;51.494;6.670;2023-08-30T10:29:41;16.10;99.90
19017;DHT22;9641;51.494;6.670;2023-08-30T10:32:09;16.00;99.90
19017;DHT22;9641;51.494;6.670;2023-08-30T10:34:38;16.00;99.90
19017;DHT22;9641;51.494;6.670;2023-08-30T10:37:12;15.90;99.90
19017;DHT22;9641;51.494;6.670;2023-08-30T10:39:42;15.80;99.90
19017;DHT22;9641;51.494;6.670;2023-08-30T10:42:12;15.70;99.90
19017;DHT22;9641;51.494;6.670;2023-08-30T10:44:49;15.70;99.90
19017;DHT22;9641;51.494;6.670;2023-08-30T10:47:23;15.70;99.90
19017;DHT22;9641;51.494;6.670;2023-08-30T10:49:56;15.60;99.90
19017;DHT22;9641;51.494;6.670;2023-08-30T10:52:25;15.60;99.90
19017;DHT22;9641;51.494;6.670;2023-08-30T10:54:53;15.60;99.90
19017;DHT22;9641;51.494;6.670;2023-08-30T10:57:24;15.60;99.90
19017;DHT22;9641;51.494;6.670;2023-08-30T11:00:11;15.60;99.90
19017;DHT22;9641;51.494;6.670;2023-08-30T11:02:44;15.50;99.90
19017;DHT22;9641;51.494;6.670;2023-08-30T11:05:40;15.50;99.90
19017;DHT22;9641;51.494;6.670;2023-08-30T11:08:17;15.50;99.90
19017;DHT22;9641;51.494;6.670;2023-08-30T11:10:49;15.50;99.90
19017;DHT22;9641;51.494;6.670;2023-08-30T11:13:27;15.50;99.90
19017;DHT22;9641;51.494;6.670;2023-08-30T11:15:54;15.50;99.90
19017;DHT22;9641;51.494;6.670;2023-08-30T11:18:21;15.50;99.90
19017;DHT22;9641;51.494;6.670;2023-08-30T11:20:53;15.60;99.90
19017;DHT22;9641;51.494;6.670;2023-08-30T11:23:21;15.50;99.90
19017;DHT22;9641;51.494;6.670;2023-08-30T11:25:50;15.50;99.90
19017;DHT22;9641;51.494;6.670;2023-08-30T11:28:22;15.50;99.90
19017;DHT22;9641;51.494;6.670;2023-08-30T11:30:49;15.50;99.90
19017;DHT22;9641;51.494;6.670;2023-08-30T11:33:18;15.60;99.90
19017;DHT22;9641;51.494;6.670;2023-08-30T11:35:45;15.60;99.90
19017;DHT22;9641;51.494;6.670;2023-08-30T11:38:17;15.70;99.90
19017;DHT22;9641;51.494;6.670;2023-08-30T11:40:49;15.70;99.90
19017;DHT22;9641;51.494;6.670;2023-08-30T11:43:22;15.90;99.90
19017;DHT22;9641;51.494;6.670;2023-08-30T11:46:03;15.90;99.90
19017;DHT22;9641;51.494;6.670;2023-08-30T11:48:30;16.00;99.90
19017;DHT22;9641;51.494;6.670;2023-08-30T11:50:58;16.00;99.90
19017;DHT22;9641;51.494;6.670;2023-08-30T11:53:27;16.00;99.90
19017;DHT22;9641;51.494;6.670;2023-08-30T11:55:54;16.00;99.90
19017;DHT22;9641;51.494;6.670;2023-08-30T11:58:21;16.00;99.90
19017;DHT22;9641;51.494;6.670;2023-08-30T12:00:52;16.10;99.90
19017;DHT22;9641;51.494;6.670;2023-08-30T12:03:20;16.10;99.90
19017;DHT22;9641;51.494;6.670;2023-08-30T12:05:48;16.10;99.90
19017;DHT22;9641;51.494;6.670;2023-08-30T12:08:20;16.10;99.90
19017;DHT22;9641;51.494;6.670;2023-08-30T12:10:54;16.20;99.90
19017;DHT22;9641;51.494;6.670;2023-08-30T12:13:23;16.20;99.90
19017;DHT22;9641;51.494;6.670;2023-08-30T12:15:51;16.30;99.90
19017;DHT22;9641;51.494;6.670;2023-08-30T12:18:21;16.30;99.90
19017;DHT22;9641;51.494;6.670;2023-08-30T12:20:54;16.30;99.90
19017;DHT22;9641;51.494;6.670;2023-08-30T12:23:22;16.30;99.90
19017;DHT22;9641;51.494;6.670;2023-08-30T12:26:02;16.20;99.90
19017;DHT22;9641;51.494;6.670;2023-08-30T12:28:31;16.20;99.90
19017;DHT22;9641;51.494;6.670;2023-08-30T12:31:08;16.20;99.90
19017;DHT22;9641;51.494;6.670;2023-08-30T12:33:38;16.20;99.90
19017;DHT22;9641;51.494;6.670;2023-08-30T12:36:13;16.20;99.90
19017;DHT22;9641;51.494;6.670;2023-08-30T12:38:40;16.10;99.90
19017;DHT22;9641;51.494;6.670;2023-08-30T12:41:08;16.10;99.90
19017;DHT22;9641;51.494;6.670;2023-08-30T12:43:41;16.10;99.90
19017;DHT22;9641;51.494;6.670;2023-08-30T12:46:08;16.10;99.90
19017;DHT22;9641;51.494;6.670;2023-08-30T12:48:35;16.10;99.90
19017;DHT22;9641;51.494;6.670;2023-08-30T12:51:03;16.10;99.90
19017;DHT22;9641;51.494;6.670;2023-08-30T12:53:30;16.10;99.90
19017;DHT22;9641;51.494;6.670;2023-08-30T12:55:57;16.20;99.90
19017;DHT22;9641;51.494;6.670;2023-08-30T12:58:27;16.30;99.90
19017;DHT22;9641;51.494;6.670;2023-08-30T13:00:57;16.30;99.90
19017;DHT22;9641;51.494;6.670;2023-08-30T13:03:24;16.20;99.90
19017;DHT22;9641;51.494;6.670;2023-08-30T13:05:54;16.10;99.90
19017;DHT22;9641;51.494;6.670;2023-08-30T13:08:33;16.10;99.90
19017;DHT22;9641;51.494;6.670;2023-08-30T13:11:00;16.10;99.90
19017;DHT22;9641;51.494;6.670;2023-08-30T13:16:35;16.10;99.90
19017;DHT22;9641;51.494;6.670;2023-08-30T13:19:02;16.00;99.90
19017;DHT22;9641;51.494;6.670;2023-08-30T13:21:29;16.00;99.90
19017;DHT22;9641;51.494;6.670;2023-08-30T13:23:55;16.00;99.90
19017;DHT22;9641;51.494;6.670;2023-08-30T13:26:23;16.10;99.90
19017;DHT22;9641;51.494;6.670;2023-08-30T13:28:49;16.10;99.90
19017;DHT22;9641;51.494;6.670;2023-08-30T13:31:16;16.00;99.90
19017;DHT22;9641;51.494;6.670;2023-08-30T13:33:44;15.90;99.90
19017;DHT22;9641;51.494;6.670;2023-08-30T13:36:11;15.90;99.90
19017;DHT22;9641;51.494;6.670;2023-08-30T13:38:38;15.90;99.90
19017;DHT22;9641;51.494;6.670;2023-08-30T13:41:05;15.90;99.90
19017;DHT22;9641;51.494;6.670;2023-08-30T13:43:33;15.90;99.90
19017;DHT22;9641;51.494;6.670;2023-08-30T13:46:00;15.80;99.90
19017;DHT22;9641;51.494;6.670;2023-08-30T13:48:26;15.80;99.90
19017;DHT22;9641;51.494;6.670;2023-08-30T13:50:55;15.80;99.90
19017;DHT22;9641;51.494;6.670;2023-08-30T13:53:21;15.80;99.90
19017;DHT22;9641;51.494;6.670;2023-08-30T13:55:50;15.80;99.90
19017;DHT22;9641;51.494;6.670;2023-08-30T13:58:16;15.90;99.90
19017;DHT22;9641;51.494;6.670;2023-08-30T14:00:44;15.90;99.90
19017;DHT22;9641;51.494;6.670;2023-08-30T14:03:11;16.00;99.90
19017;DHT22;9641;51.494;6.670;2023-08-30T14:05:37;16.00;99.90
19017;DHT22;9641;51.494;6.670;2023-08-30T14:08:07;16.00;99.90
19017;DHT22;9641;51.494;6.670;2023-08-30T14:10:34;16.00;99.90
19017;DHT22;9641;51.494;6.670;2023-08-30T14:13:01;16.00;99.90
19017;DHT22;9641;51.494;6.670;2023-08-30T14:15:28;16.00;99.90
19017;DHT22;9641;51.494;6.670;2023-08-30T14:17:55;16.00;99.90
19017;DHT22;9641;51.494;6.670;2023-08-30T14:20:22;16.00;99.90
19017;DHT22;9641;51.494;6.670;2023-08-30T14:22:50;16.00;99.90
19017;DHT22;9641;51.494;6.670;2023-08-30T14:25:18;15.90;99.90
19017;DHT22;9641;51.494;6.670;2023-08-30T14:27:45;16.00;99.90
19017;DHT22;9641;51.494;6.670;2023-08-30T14:30:12;15.90;99.90
19017;DHT22;9641;51.494;6.670;2023-08-30T14:32:39;16.00;99.90
19017;DHT22;9641;51.494;6.670;2023-08-30T14:35:07;15.90;99.90
19017;DHT22;9641;51.494;6.670;2023-08-30T14:37:34;16.00;99.90
19017;DHT22;9641;51.494;6.670;2023-08-30T14:40:02;16.00;99.90
19017;DHT22;9641;51.494;6.670;2023-08-30T14:42:30;16.00;99.90
19017;DHT22;9641;51.494;6.670;2023-08-30T14:44:58;15.90;99.90
19017;DHT22;9641;51.494;6.670;2023-08-30T14:47:25;15.80;99.90
19017;DHT22;9641;51.494;6.670;2023-08-30T14:49:52;15.70;99.90
19017;DHT22;9641;51.494;6.670;2023-08-30T14:52:19;15.60;99.90
19017;DHT22;9641;51.494;6.670;2023-08-30T14:54:45;15.60;99.90
19017;DHT22;9641;51.494;6.670;2023-08-30T14:57:12;15.70;99.90
19017;DHT22;9641;51.494;6.670;2023-08-30T14:59:40;15.80;99.90
19017;DHT22;9641;51.494;6.670;2023-08-30T15:02:07;15.80;99.90
19017;DHT22;9641;51.494;6.670;2023-08-30T15:04:34;15.90;99.90
19017;DHT22;9641;51.494;6.670;2023-08-30T15:07:01;15.90;99.90
19017;DHT22;9641;51.494;6.670;2023-08-30T15:09:29;15.90;99.90
19017;DHT22;9641;51.494;6.670;2023-08-30T15:11:56;15.90;99.90
19017;DHT22;9641;51.494;6.670;2023-08-30T15:14:23;15.80;99.90
19017;DHT22;9641;51.494;6.670;2023-08-30T15:16:51;15.70;99.90
19017;DHT22;9641;51.494;6.670;2023-08-30T15:19:18;15.70;99.90
19017;DHT22;9641;51.494;6.670;2023-08-30T15:21:45;15.70;99.90
19017;DHT22;9641;51.494;6.670;2023-08-30T15:24:12;15.80;99.90
19017;DHT22;9641;51.494;6.670;2023-08-30T15:26:41;16.30;99.90
19017;DHT22;9641;51.494;6.670;2023-08-30T15:29:08;16.90;99.90
19017;DHT22;9641;51.494;6.670;2023-08-30T15:31:35;17.10;99.90
19017;DHT22;9641;51.494;6.670;2023-08-30T15:34:04;17.10;99.90
19017;DHT22;9641;51.494;6.670;2023-08-30T15:36:31;17.40;99.90
19017;DHT22;9641;51.494;6.670;2023-08-30T15:38:57;17.50;99.90
19017;DHT22;9641;51.494;6.670;2023-08-30T15:41:24;17.40;99.90
19017;DHT22;9641;51.494;6.670;2023-08-30T15:43:51;17.30;99.90
19017;DHT22;9641;51.494;6.670;2023-08-30T15:46:18;17.20;99.90
19017;DHT22;9641;51.494;6.670;2023-08-30T15:48:46;17.00;99.90
19017;DHT22;9641;51.494;6.670;2023-08-30T15:51:14;17.00;99.90
19017;DHT22;9641;51.494;6.670;2023-08-30T15:53:41;17.10;99.90
19017;DHT22;9641;51.494;6.670;2023-08-30T15:56:08;17.60;99.90
19017;DHT22;9641;51.494;6.670;2023-08-30T15:58:35;18.10;99.90